sensor_id;sensor_type;location;lat;lon;timestamp;pressure;altitude;pressure_sealevel;temperature;humidity
59513;BME280;45330;51.634;5.562;2022-11-20T00:02:01;101271.72;;;-4.33;100.00
59513;BME280;45330;51.634;5.562;2022-11-20T00:04:27;101246.13;;;-4.49;100.00
59513;BME280;45330;51.634;5.562;2022-11-20T00:06:52;101278.47;;;-4.33;100.00
59513;BME280;45330;51.634;5.562;2022-11-20T00:09:17;101279.16;;;-4.36;100.00
59513;BME280;45330;51.634;5.562;2022-11-20T00:11:43;101275.44;;;-4.41;100.00
59513;BME280;45330;51.634;5.562;2022-11-20T00:14:09;101277.88;;;-4.42;100.00
59513;BME280;45330;51.634;5.562;2022-11-20T00:16:34;101270.94;;;-4.45;100.00
59513;BME280;45330;51.634;5.562;2022-11-20T00:19:00;101243.06;;;-4.58;100.00
59513;BME280;45330;51.634;5.562;2022-11-20T00:21:27;101269.28;;;-4.44;100.00
59513;BME280;45330;51.634;5.562;2022-11-20T00:23:54;101242.06;;;-4.60;100.00
59513;BME280;45330;51.634;5.562;2022-11-20T00:26:21;101267.44;;;-4.47;100.00
59513;BME280;45330;51.634;5.562;2022-11-20T00:28:55;101237.50;;;-4.66;100.00
59513;BME280;45330;51.634;5.562;2022-11-20T00:31:20;101274.16;;;-4.48;100.00
59513;BME280;45330;51.634;5.562;2022-11-20T00:33:46;101252.63;;;-4.54;100.00
59513;BME280;45330;51.634;5.562;2022-11-20T00:38:38;101258.84;;;-4.49;100.00
59513;BME280;45330;51.634;5.562;2022-11-20T00:41:06;101262.66;;;-4.56;100.00
59513;BME280;45330;51.634;5.562;2022-11-20T00:43:33;101261.69;;;-4.58;100.00
59513;BME280;45330;51.634;5.562;2022-11-20T00:45:59;101270.19;;;-4.57;100.00
59513;BME280;45330;51.634;5.562;2022-11-20T00:48:25;101258.88;;;-4.62;100.00
59513;BME280;45330;51.634;5.562;2022-11-20T00:50:51;101264.16;;;-4.59;100.00
59513;BME280;45330;51.634;5.562;2022-11-20T00:53:16;101255.75;;;-4.58;100.00
59513;BME280;45330;51.634;5.562;2022-11-20T00:55:41;101243.06;;;-4.58;100.00
59513;BME280;45330;51.634;5.562;2022-11-20T00:58:07;101238.56;;;-4.62;100.00
59513;BME280;45330;51.634;5.562;2022-11-20T01:00:32;101245.97;;;-4.52;100.00
59513;BME280;45330;51.634;5.562;2022-11-20T01:02:57;101239.63;;;-4.59;100.00
59513;BME280;45330;51.634;5.562;2022-11-20T01:05:23;101248.13;;;-4.58;100.00
59513;BME280;45330;51.634;5.562;2022-11-20T01:07:48;101253.41;;;-4.55;100.00
59513;BME280;45330;51.634;5.562;2022-11-20T01:10:14;101235.63;;;-4.69;100.00
59513;BME280;45330;51.634;5.562;2022-11-20T01:12:39;101259.06;;;-4.59;100.00
59513;BME280;45330;51.634;5.562;2022-11-20T01:15:05;101265.09;;;-4.57;100.00
59513;BME280;45330;51.634;5.562;2022-11-20T01:17:31;101241.31;;;-4.73;100.00
59513;BME280;45330;51.634;5.562;2022-11-20T01:19:57;101265.91;;;-4.58;100.00
59513;BME280;45330;51.634;5.562;2022-11-20T01:22:22;101239.34;;;-4.77;100.00
59513;BME280;45330;51.634;5.562;2022-11-20T01:24:48;101233.31;;;-4.79;100.00
59513;BME280;45330;51.634;5.562;2022-11-20T01:27:13;101242.69;;;-4.78;100.00
59513;BME280;45330;51.634;5.562;2022-11-20T01:29:38;101261.13;;;-4.67;100.00
59513;BME280;45330;51.634;5.562;2022-11-20T01:32:04;101253.31;;;-4.70;100.00
59513;BME280;45330;51.634;5.562;2022-11-20T01:34:29;101260.94;;;-4.70;100.00
59513;BME280;45330;51.634;5.562;2022-11-20T01:36:55;101219.00;;;-4.92;100.00
59513;BME280;45330;51.634;5.562;2022-11-20T01:39:26;101255.56;;;-4.75;100.00
59513;BME280;45330;51.634;5.562;2022-11-20T01:41:54;101235.50;;;-4.85;100.00
59513;BME280;45330;51.634;5.562;2022-11-20T01:44:48;101253.13;;;-4.73;100.00
59513;BME280;45330;51.634;5.562;2022-11-20T01:47:19;101249.41;;;-4.78;100.00
59513;BME280;45330;51.634;5.562;2022-11-20T01:49:50;101237.81;;;-4.88;100.00
59513;BME280;45330;51.634;5.562;2022-11-20T01:52:53;101232.16;;;-4.97;100.00
59513;BME280;45330;51.634;5.562;2022-11-20T01:55:32;101255.56;;;-4.88;100.00
59513;BME280;45330;51.634;5.562;2022-11-20T01:58:00;101242.69;;;-4.91;100.00
59513;BME280;45330;51.634;5.562;2022-11-20T02:00:26;101261.72;;;-4.85;100.00
59513;BME280;45330;51.634;5.562;2022-11-20T02:02:57;101226.78;;;-5.02;100.00
59513;BME280;45330;51.634;5.562;2022-11-20T02:05:46;101245.31;;;-4.90;100.00
59513;BME280;45330;51.634;5.562;2022-11-20T02:08:15;101241.16;;;-4.89;100.00
59513;BME280;45330;51.634;5.562;2022-11-20T02:10:40;101231.09;;;-5.01;100.00
59513;BME280;45330;51.634;5.562;2022-11-20T02:13:06;101236.66;;;-5.07;100.00
59513;BME280;45330;51.634;5.562;2022-11-20T02:15:50;101241.06;;;-5.04;100.00
59513;BME280;45330;51.634;5.562;2022-11-20T02:18:19;101229.44;;;-5.14;100.00
59513;BME280;45330;51.634;5.562;2022-11-20T02:20:47;101239.47;;;-5.02;100.00
59513;BME280;45330;51.634;5.562;2022-11-20T02:23:36;101251.56;;;-4.98;100.00
59513;BME280;45330;51.634;5.562;2022-11-20T02:26:06;101246.22;;;-5.03;100.00
59513;BME280;45330;51.634;5.562;2022-11-20T02:28:33;101213.84;;;-5.20;100.00
59513;BME280;45330;51.634;5.562;2022-11-20T02:30:58;101242.31;;;-4.97;100.00
59513;BME280;45330;51.634;5.562;2022-11-20T02:33:24;101212.44;;;-5.15;100.00
59513;BME280;45330;51.634;5.562;2022-11-20T02:35:49;101238.31;;;-5.07;100.00
59513;BME280;45330;51.634;5.562;2022-11-20T02:38:14;101224.19;;;-5.17;100.00
59513;BME280;45330;51.634;5.562;2022-11-20T02:40:41;101236.28;;;-5.13;100.00
59513;BME280;45330;51.634;5.562;2022-11-20T02:43:07;101230.78;;;-5.19;100.00
59513;BME280;45330;51.634;5.562;2022-11-20T02:45:33;101212.88;;;-5.36;100.00
59513;BME280;45330;51.634;5.562;2022-11-20T02:47:58;101214.41;;;-5.38;100.00
59513;BME280;45330;51.634;5.562;2022-11-20T02:50:24;101247.41;;;-5.24;100.00
59513;BME280;45330;51.634;5.562;2022-11-20T02:52:49;101236.16;;;-5.28;100.00
59513;BME280;45330;51.634;5.562;2022-11-20T02:55:17;101245.72;;;-5.24;100.00
59513;BME280;45330;51.634;5.562;2022-11-20T02:57:42;101235.88;;;-5.32;100.00
59513;BME280;45330;51.634;5.562;2022-11-20T03:00:08;101219.19;;;-5.42;100.00
59513;BME280;45330;51.634;5.562;2022-11-20T03:02:34;101214.22;;;-5.41;100.00
59513;BME280;45330;51.634;5.562;2022-11-20T03:05:00;101212.44;;;-5.42;100.00
59513;BME280;45330;51.634;5.562;2022-11-20T03:07:25;101246.41;;;-5.26;100.00
59513;BME280;45330;51.634;5.562;2022-11-20T03:09:50;101235.97;;;-5.31;100.00
59513;BME280;45330;51.634;5.562;2022-11-20T03:12:16;101237.66;;;-5.31;100.00
59513;BME280;45330;51.634;5.562;2022-11-20T03:14:41;101229.81;;;-5.35;100.00
59513;BME280;45330;51.634;5.562;2022-11-20T03:17:07;101239.09;;;-5.35;100.00
59513;BME280;45330;51.634;5.562;2022-11-20T03:19:33;101236.56;;;-5.35;100.00
59513;BME280;45330;51.634;5.562;2022-11-20T03:21:59;101242.72;;;-5.31;100.00
59513;BME280;45330;51.634;5.562;2022-11-20T03:24:25;101203.56;;;-5.48;100.00
59513;BME280;45330;51.634;5.562;2022-11-20T03:26:51;101226.13;;;-5.26;100.00
59513;BME280;45330;51.634;5.562;2022-11-20T03:29:16;101213.34;;;-5.28;100.00
59513;BME280;45330;51.634;5.562;2022-11-20T03:31:41;101220.75;;;-5.18;100.00
59513;BME280;45330;51.634;5.562;2022-11-20T03:34:08;101195.19;;;-5.21;100.00
59513;BME280;45330;51.634;5.562;2022-11-20T03:36:37;101214.00;;;-5.04;100.00
59513;BME280;45330;51.634;5.562;2022-11-20T03:39:03;101207.28;;;-5.03;100.00
59513;BME280;45330;51.634;5.562;2022-11-20T03:41:30;101195.09;;;-5.09;100.00
59513;BME280;45330;51.634;5.562;2022-11-20T03:43:58;101191.28;;;-5.15;100.00
59513;BME280;45330;51.634;5.562;2022-11-20T03:46:24;101174.91;;;-5.34;100.00
59513;BME280;45330;51.634;5.562;2022-11-20T03:48:50;101182.44;;;-5.36;100.00
59513;BME280;45330;51.634;5.562;2022-11-20T03:51:22;101204.69;;;-5.31;100.00
59513;BME280;45330;51.634;5.562;2022-11-20T03:53:49;101197.66;;;-5.36;100.00
59513;BME280;45330;51.634;5.562;2022-11-20T03:56:18;101185.13;;;-5.46;100.00
59513;BME280;45330;51.634;5.562;2022-11-20T03:58:43;101200.66;;;-5.41;100.00
59513;BME280;45330;51.634;5.562;2022-11-20T04:01:14;101194.41;;;-5.46;100.00
59513;BME280;45330;51.634;5.562;2022-11-20T04:03:41;101197.81;;;-5.46;100.00
59513;BME280;45330;51.634;5.562;2022-11-20T04:06:12;101196.28;;;-5.44;100.00
59513;BME280;45330;51.634;5.562;2022-11-20T04:08:38;101190.22;;;-5.46;100.00
59513;BME280;45330;51.634;5.562;2022-11-20T04:11:28;101185.81;;;-5.48;100.00
59513;BME280;45330;51.634;5.562;2022-11-20T04:13:57;101162.50;;;-5.56;100.00
59513;BME280;45330;51.634;5.562;2022-11-20T04:16:23;101183.78;;;-5.41;100.00
59513;BME280;45330;51.634;5.562;2022-11-20T04:18:57;101188.00;;;-5.41;100.00
59513;BME280;45330;51.634;5.562;2022-11-20T04:21:23;101163.28;;;-5.57;100.00
59513;BME280;45330;51.634;5.562;2022-11-20T04:23:50;101173.84;;;-5.51;100.00
59513;BME280;45330;51.634;5.562;2022-11-20T04:26:16;101161.25;;;-5.63;100.00
59513;BME280;45330;51.634;5.562;2022-11-20T04:28:41;101174.09;;;-5.60;100.00
59513;BME280;45330;51.634;5.562;2022-11-20T04:33:33;101145.47;;;-5.72;100.00
59513;BME280;45330;51.634;5.562;2022-11-20T04:36:03;101161.25;;;-5.63;100.00
59513;BME280;45330;51.634;5.562;2022-11-20T04:38:29;101171.00;;;-5.56;100.00
59513;BME280;45330;51.634;5.562;2022-11-20T04:40:57;101170.13;;;-5.56;100.00
59513;BME280;45330;51.634;5.562;2022-11-20T04:43:23;101168.16;;;-5.60;100.00
59513;BME280;45330;51.634;5.562;2022-11-20T04:45:55;101172.47;;;-5.59;100.00
59513;BME280;45330;51.634;5.562;2022-11-20T04:48:21;101151.28;;;-5.73;100.00
59513;BME280;45330;51.634;5.562;2022-11-20T04:50:47;101151.88;;;-5.77;100.00
59513;BME280;45330;51.634;5.562;2022-11-20T04:53:13;101146.63;;;-5.80;100.00
59513;BME280;45330;51.634;5.562;2022-11-20T04:55:38;101141.22;;;-5.85;100.00
59513;BME280;45330;51.634;5.562;2022-11-20T04:58:04;101144.66;;;-5.84;100.00
59513;BME280;45330;51.634;5.562;2022-11-20T05:00:29;101170.22;;;-5.68;100.00
59513;BME280;45330;51.634;5.562;2022-11-20T05:02:54;101160.66;;;-5.72;100.00
59513;BME280;45330;51.634;5.562;2022-11-20T05:05:22;101168.06;;;-5.62;100.00
59513;BME280;45330;51.634;5.562;2022-11-20T05:07:47;101161.94;;;-5.52;100.00
59513;BME280;45330;51.634;5.562;2022-11-20T05:10:13;101157.53;;;-5.55;100.00
59513;BME280;45330;51.634;5.562;2022-11-20T05:12:38;101085.31;;;-6.01;100.00
59513;BME280;45330;51.634;5.562;2022-11-20T05:15:04;101157.06;;;-5.62;100.00
59513;BME280;45330;51.634;5.562;2022-11-20T05:17:29;101150.81;;;-5.68;100.00
59513;BME280;45330;51.634;5.562;2022-11-20T05:19:54;101155.59;;;-5.72;100.00
59513;BME280;45330;51.634;5.562;2022-11-20T05:22:20;101120.22;;;-5.97;100.00
59513;BME280;45330;51.634;5.562;2022-11-20T05:24:45;101128.06;;;-5.93;100.00
59513;BME280;45330;51.634;5.562;2022-11-20T05:27:11;101154.50;;;-5.76;100.00
59513;BME280;45330;51.634;5.562;2022-11-20T05:29:36;101147.66;;;-5.77;100.00
59513;BME280;45330;51.634;5.562;2022-11-20T05:32:02;101147.47;;;-5.80;100.00
59513;BME280;45330;51.634;5.562;2022-11-20T05:34:31;101146.50;;;-5.82;100.00
59513;BME280;45330;51.634;5.562;2022-11-20T05:36:56;101127.13;;;-5.95;100.00
59513;BME280;45330;51.634;5.562;2022-11-20T05:39:22;101121.66;;;-6.01;100.00
59513;BME280;45330;51.634;5.562;2022-11-20T05:41:47;101145.72;;;-5.81;100.00
59513;BME280;45330;51.634;5.562;2022-11-20T05:44:32;101137.34;;;-5.80;100.00
59513;BME280;45330;51.634;5.562;2022-11-20T05:46:58;101124.97;;;-5.89;100.00
59513;BME280;45330;51.634;5.562;2022-11-20T05:49:23;101141.53;;;-5.80;100.00
59513;BME280;45330;51.634;5.562;2022-11-20T05:51:48;101152.84;;;-5.75;100.00
59513;BME280;45330;51.634;5.562;2022-11-20T05:54:14;101150.19;;;-5.77;100.00
59513;BME280;45330;51.634;5.562;2022-11-20T05:56:39;101166.22;;;-5.64;100.00
59513;BME280;45330;51.634;5.562;2022-11-20T05:59:04;101147.31;;;-5.56;100.00
59513;BME280;45330;51.634;5.562;2022-11-20T06:01:30;101156.56;;;-5.57;100.00
59513;BME280;45330;51.634;5.562;2022-11-20T06:03:55;101165.34;;;-5.52;100.00
59513;BME280;45330;51.634;5.562;2022-11-20T06:06:21;101160.88;;;-5.42;100.00
59513;BME280;45330;51.634;5.562;2022-11-20T06:08:46;101143.97;;;-5.42;100.00
59513;BME280;45330;51.634;5.562;2022-11-20T06:11:13;101081.50;;;-5.68;100.00
59513;BME280;45330;51.634;5.562;2022-11-20T06:13:39;101147.06;;;-5.19;100.00
59513;BME280;45330;51.634;5.562;2022-11-20T06:16:05;101175.94;;;-4.90;100.00
59513;BME280;45330;51.634;5.562;2022-11-20T06:18:31;101152.50;;;-4.86;100.00
59513;BME280;45330;51.634;5.562;2022-11-20T06:21:08;101174.69;;;-4.69;100.00
59513;BME280;45330;51.634;5.562;2022-11-20T06:23:34;101151.25;;;-4.65;100.00
59513;BME280;45330;51.634;5.562;2022-11-20T06:26:08;101147.06;;;-4.64;100.00
59513;BME280;45330;51.634;5.562;2022-11-20T06:28:34;101152.06;;;-4.51;100.00
59513;BME280;45330;51.634;5.562;2022-11-20T06:30:59;101172.19;;;-4.25;100.00
59513;BME280;45330;51.634;5.562;2022-11-20T06:33:25;101145.84;;;-4.27;100.00
59513;BME280;45330;51.634;5.562;2022-11-20T06:35:51;101142.06;;;-4.19;100.00
59513;BME280;45330;51.634;5.562;2022-11-20T06:38:16;101130.16;;;-4.20;100.00
59513;BME280;45330;51.634;5.562;2022-11-20T06:40:42;101155.03;;;-4.00;100.00
59513;BME280;45330;51.634;5.562;2022-11-20T06:43:09;101131.38;;;-4.14;100.00
59513;BME280;45330;51.634;5.562;2022-11-20T06:45:34;101159.34;;;-3.99;100.00
59513;BME280;45330;51.634;5.562;2022-11-20T06:48:00;101165.22;;;-4.00;100.00
59513;BME280;45330;51.634;5.562;2022-11-20T06:50:25;101145.06;;;-4.11;100.00
59513;BME280;45330;51.634;5.562;2022-11-20T06:52:50;101146.47;;;-4.02;100.00
59513;BME280;45330;51.634;5.562;2022-11-20T06:55:16;101119.72;;;-4.10;100.00
59513;BME280;45330;51.634;5.562;2022-11-20T06:57:41;101136.81;;;-3.92;100.00
59513;BME280;45330;51.634;5.562;2022-11-20T07:00:07;101134.63;;;-3.86;100.00
59513;BME280;45330;51.634;5.562;2022-11-20T07:02:32;101140.06;;;-3.80;100.00
59513;BME280;45330;51.634;5.562;2022-11-20T07:04:58;101135.94;;;-3.78;100.00
59513;BME280;45330;51.634;5.562;2022-11-20T07:07:23;101137.97;;;-3.72;100.00
59513;BME280;45330;51.634;5.562;2022-11-20T07:09:48;101131.28;;;-3.70;100.00
59513;BME280;45330;51.634;5.562;2022-11-20T07:12:14;101125.16;;;-3.74;100.00
59513;BME280;45330;51.634;5.562;2022-11-20T07:14:39;101066.53;;;-4.07;100.00
59513;BME280;45330;51.634;5.562;2022-11-20T07:17:05;101124.78;;;-3.80;100.00
59513;BME280;45330;51.634;5.562;2022-11-20T07:19:30;101120.31;;;-3.84;100.00
59513;BME280;45330;51.634;5.562;2022-11-20T07:21:55;101107.91;;;-3.94;100.00
59513;BME280;45330;51.634;5.562;2022-11-20T07:24:21;101102.13;;;-3.92;100.00
59513;BME280;45330;51.634;5.562;2022-11-20T07:26:46;101139.06;;;-3.67;100.00
59513;BME280;45330;51.634;5.562;2022-11-20T07:29:14;101139.78;;;-3.55;100.00
59513;BME280;45330;51.634;5.562;2022-11-20T07:31:40;101121.88;;;-3.56;100.00
59513;BME280;45330;51.634;5.562;2022-11-20T07:34:06;101141.75;;;-3.34;100.00
59513;BME280;45330;51.634;5.562;2022-11-20T07:36:31;101136.38;;;-3.24;100.00
59513;BME280;45330;51.634;5.562;2022-11-20T07:38:57;101112.16;;;-3.32;100.00
59513;BME280;45330;51.634;5.562;2022-11-20T07:41:22;101116.72;;;-3.27;100.00
59513;BME280;45330;51.634;5.562;2022-11-20T07:43:47;101140.97;;;-3.02;100.00
59513;BME280;45330;51.634;5.562;2022-11-20T07:46:13;101137.16;;;-2.94;100.00
59513;BME280;45330;51.634;5.562;2022-11-20T07:48:38;101135.72;;;-2.88;100.00
59513;BME280;45330;51.634;5.562;2022-11-20T07:51:03;101134.28;;;-2.83;100.00
59513;BME280;45330;51.634;5.562;2022-11-20T07:53:29;101134.44;;;-2.80;100.00
59513;BME280;45330;51.634;5.562;2022-11-20T07:55:54;101118.50;;;-2.93;100.00
59513;BME280;45330;51.634;5.562;2022-11-20T07:58:20;101133.28;;;-2.87;100.00
59513;BME280;45330;51.634;5.562;2022-11-20T08:00:46;101136.69;;;-2.86;100.00
59513;BME280;45330;51.634;5.562;2022-11-20T08:03:12;101120.75;;;-2.99;100.00
59513;BME280;45330;51.634;5.562;2022-11-20T08:05:38;101128.88;;;-2.89;100.00
59513;BME280;45330;51.634;5.562;2022-11-20T08:08:03;101126.81;;;-2.80;100.00
59513;BME280;45330;51.634;5.562;2022-11-20T08:10:29;101143.16;;;-2.60;100.00
59513;BME280;45330;51.634;5.562;2022-11-20T08:12:54;101134.31;;;-2.50;100.00
59513;BME280;45330;51.634;5.562;2022-11-20T08:15:39;101119.34;;;-2.44;100.00
59513;BME280;45330;51.634;5.562;2022-11-20T08:18:10;101124.34;;;-2.29;100.00
59513;BME280;45330;51.634;5.562;2022-11-20T08:20:37;101090.81;;;-2.37;100.00
59513;BME280;45330;51.634;5.562;2022-11-20T08:23:06;101105.44;;;-2.16;100.00
59513;BME280;45330;51.634;5.562;2022-11-20T08:25:37;101112.09;;;-2.02;100.00
59513;BME280;45330;51.634;5.562;2022-11-20T08:28:07;101114.22;;;-1.93;100.00
59513;BME280;45330;51.634;5.562;2022-11-20T08:30:34;101086.81;;;-1.97;100.00
59513;BME280;45330;51.634;5.562;2022-11-20T08:33:07;101096.66;;;-1.87;100.00
59513;BME280;45330;51.634;5.562;2022-11-20T08:35:37;101109.91;;;-1.76;100.00
59513;BME280;45330;51.634;5.562;2022-11-20T08:38:06;101096.88;;;-1.82;100.00
59513;BME280;45330;51.634;5.562;2022-11-20T08:40:32;101092.88;;;-1.77;100.00
59513;BME280;45330;51.634;5.562;2022-11-20T08:42:57;101100.81;;;-1.71;100.00
59513;BME280;45330;51.634;5.562;2022-11-20T08:45:23;101113.53;;;-1.54;100.00
59513;BME280;45330;51.634;5.562;2022-11-20T08:47:48;101096.00;;;-1.65;100.00
59513;BME280;45330;51.634;5.562;2022-11-20T08:50:15;101105.78;;;-1.56;100.00
59513;BME280;45330;51.634;5.562;2022-11-20T08:52:42;101129.56;;;-1.39;100.00
59513;BME280;45330;51.634;5.562;2022-11-20T08:55:08;101128.91;;;-1.35;100.00
59513;BME280;45330;51.634;5.562;2022-11-20T08:57:35;101092.66;;;-1.46;100.00
59513;BME280;45330;51.634;5.562;2022-11-20T09:00:00;101126.03;;;-1.23;100.00
59513;BME280;45330;51.634;5.562;2022-11-20T09:02:26;101118.72;;;-1.15;100.00
59513;BME280;45330;51.634;5.562;2022-11-20T09:04:51;101087.66;;;-1.25;100.00
59513;BME280;45330;51.634;5.562;2022-11-20T09:07:18;101080.28;;;-1.18;100.00
59513;BME280;45330;51.634;5.562;2022-11-20T09:09:44;101103.56;;;-0.93;100.00
59513;BME280;45330;51.634;5.562;2022-11-20T09:12:09;101106.53;;;-0.83;100.00
59513;BME280;45330;51.634;5.562;2022-11-20T09:14:34;101100.13;;;-0.74;100.00
59513;BME280;45330;51.634;5.562;2022-11-20T09:17:00;101081.88;;;-0.83;100.00
59513;BME280;45330;51.634;5.562;2022-11-20T09:19:25;101097.31;;;-0.60;100.00
59513;BME280;45330;51.634;5.562;2022-11-20T09:21:51;101094.16;;;-0.55;100.00
59513;BME280;45330;51.634;5.562;2022-11-20T09:24:16;101077.75;;;-0.60;100.00
59513;BME280;45330;51.634;5.562;2022-11-20T09:26:42;101087.94;;;-0.40;100.00
59513;BME280;45330;51.634;5.562;2022-11-20T09:29:07;101095.25;;;-0.28;100.00
59513;BME280;45330;51.634;5.562;2022-11-20T09:31:32;101093.84;;;-0.22;100.00
59513;BME280;45330;51.634;5.562;2022-11-20T09:33:58;101064.50;;;-0.30;100.00
59513;BME280;45330;51.634;5.562;2022-11-20T09:36:23;101067.34;;;-0.24;100.00
59513;BME280;45330;51.634;5.562;2022-11-20T09:38:49;101063.88;;;-0.24;100.00
59513;BME280;45330;51.634;5.562;2022-11-20T09:41:36;101080.31;;;0.02;100.00
59513;BME280;45330;51.634;5.562;2022-11-20T09:52:29;101046.59;;;0.12;100.00
59513;BME280;45330;51.634;5.562;2022-11-20T09:54:58;101069.31;;;0.26;100.00
59513;BME280;45330;51.634;5.562;2022-11-20T09:57:34;101067.88;;;0.32;100.00
59513;BME280;45330;51.634;5.562;2022-11-20T10:00:04;101044.28;;;0.19;100.00
59513;BME280;45330;51.634;5.562;2022-11-20T10:03:13;101080.38;;;0.47;100.00
59513;BME280;45330;51.634;5.562;2022-11-20T10:05:40;101063.34;;;0.48;100.00
59513;BME280;45330;51.634;5.562;2022-11-20T10:08:28;101062.81;;;0.57;100.00
59513;BME280;45330;51.634;5.562;2022-11-20T10:11:55;101055.09;;;0.55;100.00
59513;BME280;45330;51.634;5.562;2022-11-20T10:14:20;101054.44;;;0.61;100.00
59513;BME280;45330;51.634;5.562;2022-11-20T10:24:56;101020.63;;;0.94;100.00
59513;BME280;45330;51.634;5.562;2022-11-20T10:27:53;101012.94;;;0.94;100.00
59513;BME280;45330;51.634;5.562;2022-11-20T10:30:22;100997.47;;;0.91;100.00
59513;BME280;45330;51.634;5.562;2022-11-20T10:33:03;100996.75;;;0.95;100.00
59513;BME280;45330;51.634;5.562;2022-11-20T10:35:42;100986.66;;;0.99;100.00
59513;BME280;45330;51.634;5.562;2022-11-20T10:38:14;100954.72;;;0.90;100.00
59513;BME280;45330;51.634;5.562;2022-11-20T10:40:44;100966.94;;;0.97;100.00
59513;BME280;45330;51.634;5.562;2022-11-20T10:43:33;100963.31;;;1.16;100.00
59513;BME280;45330;51.634;5.562;2022-11-20T10:46:03;100933.19;;;1.09;100.00
59513;BME280;45330;51.634;5.562;2022-11-20T10:48:31;100919.69;;;1.14;100.00
59513;BME280;45330;51.634;5.562;2022-11-20T10:50:59;100939.78;;;1.28;100.00
59513;BME280;45330;51.634;5.562;2022-11-20T10:56:35;100927.69;;;1.49;100.00
59513;BME280;45330;51.634;5.562;2022-11-20T11:01:54;100929.91;;;1.66;100.00
59513;BME280;45330;51.634;5.562;2022-11-20T11:04:40;100926.59;;;1.70;100.00
59513;BME280;45330;51.634;5.562;2022-11-20T11:07:13;100922.50;;;1.75;100.00
59513;BME280;45330;51.634;5.562;2022-11-20T11:09:50;100856.78;;;1.51;100.00
59513;BME280;45330;51.634;5.562;2022-11-20T11:12:17;100900.38;;;1.79;100.00
59513;BME280;45330;51.634;5.562;2022-11-20T11:14:51;100897.88;;;1.80;100.00
59513;BME280;45330;51.634;5.562;2022-11-20T11:17:32;100882.91;;;1.67;100.00
59513;BME280;45330;51.634;5.562;2022-11-20T11:20:27;100908.22;;;1.83;100.00
59513;BME280;45330;51.634;5.562;2022-11-20T11:22:55;100890.69;;;1.70;100.00
59513;BME280;45330;51.634;5.562;2022-11-20T11:25:35;100903.91;;;1.82;100.00
59513;BME280;45330;51.634;5.562;2022-11-20T11:28:24;100892.81;;;1.83;100.00
59513;BME280;45330;51.634;5.562;2022-11-20T11:30:51;100890.06;;;1.77;100.00
59513;BME280;45330;51.634;5.562;2022-11-20T11:35:52;100873.38;;;1.63;100.00
59513;BME280;45330;51.634;5.562;2022-11-20T11:38:41;100901.25;;;1.79;100.00
59513;BME280;45330;51.634;5.562;2022-11-20T11:41:16;100884.63;;;1.66;100.00
59513;BME280;45330;51.634;5.562;2022-11-20T11:43:51;100879.66;;;1.73;100.00
59513;BME280;45330;51.634;5.562;2022-11-20T11:46:36;100889.22;;;1.78;100.00
59513;BME280;45330;51.634;5.562;2022-11-20T11:54:18;100863.94;;;1.62;100.00
59513;BME280;45330;51.634;5.562;2022-11-20T11:56:45;100884.06;;;1.77;100.00
59513;BME280;45330;51.634;5.562;2022-11-20T12:00:02;100871.22;;;1.77;100.00
59513;BME280;45330;51.634;5.562;2022-11-20T12:02:04;100855.78;;;1.75;100.00
59513;BME280;45330;51.634;5.562;2022-11-20T12:04:52;100822.34;;;1.72;100.00
59513;BME280;45330;51.634;5.562;2022-11-20T12:07:46;100844.47;;;1.97;100.00
59513;BME280;45330;51.634;5.562;2022-11-20T12:15:45;100817.47;;;2.10;100.00
59513;BME280;45330;51.634;5.562;2022-11-20T12:18:16;100817.63;;;2.16;100.00
59513;BME280;45330;51.634;5.562;2022-11-20T12:20:48;100783.22;;;2.10;100.00
59513;BME280;45330;51.634;5.562;2022-11-20T12:23:50;100791.53;;;2.33;100.00
59513;BME280;45330;51.634;5.562;2022-11-20T12:29:29;100786.28;;;2.28;100.00
59513;BME280;45330;51.634;5.562;2022-11-20T12:32:20;100781.97;;;2.27;100.00
59513;BME280;45330;51.634;5.562;2022-11-20T12:35:04;100758.34;;;2.07;100.00
59513;BME280;45330;51.634;5.562;2022-11-20T12:37:52;100770.59;;;2.17;100.00
59513;BME280;45330;51.634;5.562;2022-11-20T12:46:09;100755.25;;;2.20;100.00
59513;BME280;45330;51.634;5.562;2022-11-20T12:49:02;100749.34;;;2.23;100.00
59513;BME280;45330;51.634;5.562;2022-11-20T12:51:45;100755.53;;;2.30;100.00
59513;BME280;45330;51.634;5.562;2022-11-20T12:54:27;100755.66;;;2.36;100.00
59513;BME280;45330;51.634;5.562;2022-11-20T12:57:04;100721.22;;;2.28;100.00
59513;BME280;45330;51.634;5.562;2022-11-20T13:02:27;100705.50;;;2.50;100.00
59513;BME280;45330;51.634;5.562;2022-11-20T13:05:13;100715.66;;;2.81;100.00
59513;BME280;45330;51.634;5.562;2022-11-20T13:07:43;100702.16;;;2.89;100.00
59513;BME280;45330;51.634;5.562;2022-11-20T13:13:35;100687.03;;;3.02;100.00
59513;BME280;45330;51.634;5.562;2022-11-20T13:16:54;100692.38;;;3.11;100.00
59513;BME280;45330;51.634;5.562;2022-11-20T13:19:24;100681.94;;;3.05;100.00
59513;BME280;45330;51.634;5.562;2022-11-20T13:21:50;100667.97;;;2.94;100.00
59513;BME280;45330;51.634;5.562;2022-11-20T13:26:44;100664.41;;;2.87;100.00
59513;BME280;45330;51.634;5.562;2022-11-20T13:29:17;100648.69;;;2.73;100.00
59513;BME280;45330;51.634;5.562;2022-11-20T13:31:45;100657.41;;;2.81;100.00
59513;BME280;45330;51.634;5.562;2022-11-20T13:34:14;100634.94;;;2.71;100.00
59513;BME280;45330;51.634;5.562;2022-11-20T13:36:53;100651.44;;;2.81;100.00
59513;BME280;45330;51.634;5.562;2022-11-20T13:39:33;100628.16;;;2.73;100.00
59513;BME280;45330;51.634;5.562;2022-11-20T13:42:01;100635.22;;;2.83;100.00
59513;BME280;45330;51.634;5.562;2022-11-20T13:44:39;100631.91;;;2.89;100.00
59513;BME280;45330;51.634;5.562;2022-11-20T13:47:27;100616.41;;;2.84;100.00
59513;BME280;45330;51.634;5.562;2022-11-20T13:49:55;100604.97;;;2.71;100.00
59513;BME280;45330;51.634;5.562;2022-11-20T13:53:04;100618.13;;;2.85;100.00
59513;BME280;45330;51.634;5.562;2022-11-20T13:56:04;100618.09;;;2.84;100.00